createdAt,value
2019-03-03T00:01:24.487Z,3.33
2019-03-03T00:03:53.432Z,3.70
2019-03-03T00:06:22.404Z,3.47
2019-03-03T00:08:51.307Z,4.30
2019-03-03T00:11:20.122Z,2.93
2019-03-03T00:13:48.993Z,5.20
2019-03-03T00:16:17.871Z,3.33
2019-03-03T00:18:46.706Z,4.40
2019-03-03T00:21:15.612Z,3.27
2019-03-03T00:23:44.605Z,3.57
2019-03-03T00:26:13.456Z,2.87
2019-03-03T00:28:42.361Z,3.67
2019-03-03T00:31:11.501Z,3.67
2019-03-03T00:33:40.394Z,2.83
2019-03-03T00:36:09.572Z,3.47
2019-03-03T00:39:04.159Z,3.60
2019-03-03T00:41:52.206Z,2.50
2019-03-03T00:44:52.032Z,2.50
2019-03-03T00:47:41.562Z,2.73
2019-03-03T00:50:24.711Z,1.97
2019-03-03T00:53:15.632Z,3.17
2019-03-03T00:55:49.318Z,2.80
2019-03-03T00:58:27.095Z,3.03
2019-03-03T01:01:15.084Z,3.50
2019-03-03T01:04:01.660Z,3.40
2019-03-03T01:06:49.575Z,3.00
2019-03-03T01:09:39.286Z,3.07
2019-03-03T01:12:33.729Z,3.13
2019-03-03T01:15:31.075Z,2.70
2019-03-03T01:18:07.086Z,4.07
2019-03-03T01:20:41.071Z,3.67
2019-03-03T01:23:32.315Z,2.90
2019-03-03T01:26:01.207Z,3.13
2019-03-03T01:28:30.160Z,3.37
2019-03-03T01:30:59.038Z,3.53
2019-03-03T01:33:28.191Z,4.47
2019-03-03T01:35:57.025Z,3.83
2019-03-03T01:38:25.881Z,3.80
2019-03-03T01:40:54.793Z,4.70
2019-03-03T01:43:23.638Z,3.37
2019-03-03T01:45:52.531Z,3.10
2019-03-03T01:48:21.423Z,3.90
2019-03-03T01:50:50.362Z,3.10
2019-03-03T01:53:19.342Z,3.80
2019-03-03T01:55:48.161Z,4.07
2019-03-03T01:58:16.994Z,3.93
2019-03-03T02:00:46.409Z,5.83
2019-03-03T02:03:15.322Z,3.60
2019-03-03T02:05:44.129Z,4.00
2019-03-03T02:08:13.223Z,3.57
2019-03-03T02:10:42.155Z,3.53
2019-03-03T02:13:11.226Z,3.50
2019-03-03T02:15:40.257Z,4.17
2019-03-03T02:18:09.333Z,3.80
2019-03-03T02:20:38.378Z,3.40
2019-03-03T02:23:07.778Z,3.50
2019-03-03T02:25:36.659Z,2.50
2019-03-03T02:28:05.521Z,3.50
2019-03-03T02:30:34.499Z,3.43
2019-03-03T02:33:03.459Z,3.00
2019-03-03T02:35:32.415Z,3.57
2019-03-03T02:38:01.416Z,2.97
2019-03-03T02:40:30.287Z,4.00
2019-03-03T02:42:59.202Z,4.43
2019-03-03T02:45:28.226Z,3.40
2019-03-03T02:47:57.071Z,2.77
2019-03-03T02:50:25.972Z,4.33
2019-03-03T02:52:54.921Z,2.63
2019-03-03T02:55:23.875Z,3.43
2019-03-03T02:57:52.695Z,4.07
2019-03-03T03:00:22.256Z,3.03
2019-03-03T03:02:52.771Z,3.10
2019-03-03T03:05:33.741Z,3.47
2019-03-03T03:08:06.058Z,4.23
2019-03-03T03:10:52.962Z,4.13
2019-03-03T03:13:35.036Z,3.67
2019-03-03T03:16:28.979Z,2.90
2019-03-03T03:19:03.108Z,3.60
2019-03-03T03:21:48.966Z,3.33
2019-03-03T03:24:55.369Z,3.10
2019-03-03T03:27:31.397Z,3.53
2019-03-03T03:30:14.981Z,4.43
2019-03-03T03:32:48.633Z,3.10
2019-03-03T03:35:51.744Z,3.13
2019-03-03T03:38:25.782Z,3.47
2019-03-03T03:41:04.050Z,3.30
2019-03-03T03:43:52.528Z,3.63
2019-03-03T03:46:39.512Z,3.93
2019-03-03T03:49:27.502Z,3.13
2019-03-03T03:52:07.352Z,3.07
2019-03-03T03:55:06.022Z,3.40
2019-03-03T03:57:45.249Z,2.77
2019-03-03T04:00:21.283Z,3.30
2019-03-03T04:03:05.375Z,3.30
2019-03-03T04:05:56.031Z,5.33
2019-03-03T04:08:47.080Z,3.80
2019-03-03T04:11:23.319Z,3.27
2019-03-03T04:14:04.928Z,2.87
2019-03-03T04:16:52.111Z,3.43
2019-03-03T04:19:28.829Z,3.73
2019-03-03T04:22:08.749Z,3.20
2019-03-03T04:25:05.785Z,2.80
2019-03-03T04:27:44.612Z,3.10
2019-03-03T04:30:31.627Z,3.77
2019-03-03T04:33:09.231Z,4.57
2019-03-03T04:35:43.872Z,4.50
2019-03-03T04:38:44.135Z,3.07
2019-03-03T04:41:35.143Z,3.90
2019-03-03T04:44:32.191Z,4.90
2019-03-03T04:47:09.876Z,3.43
2019-03-03T04:49:48.456Z,4.03
2019-03-03T04:52:32.527Z,3.27
2019-03-03T04:55:35.484Z,3.20
2019-03-03T04:58:17.114Z,3.63
2019-03-03T05:00:53.750Z,2.70
2019-03-03T05:03:44.963Z,3.00
2019-03-03T05:06:34.974Z,3.70
2019-03-03T05:09:27.011Z,2.67
2019-03-03T05:12:55.595Z,4.47
2019-03-03T05:15:58.934Z,3.77
2019-03-03T05:18:41.555Z,3.20
2019-03-03T05:21:10.431Z,4.40
2019-03-03T05:23:39.262Z,3.67
2019-03-03T05:26:08.107Z,3.20
2019-03-03T05:28:36.955Z,3.10
2019-03-03T05:31:06.026Z,3.90
2019-03-03T05:33:34.878Z,4.17
2019-03-03T05:36:03.824Z,3.83
2019-03-03T05:38:32.724Z,3.87
2019-03-03T05:41:01.671Z,3.50
2019-03-03T05:43:30.496Z,3.60
2019-03-03T05:45:59.499Z,3.00
2019-03-03T05:48:28.346Z,3.70
2019-03-03T05:50:57.526Z,3.10
2019-03-03T05:53:26.387Z,3.70
2019-03-03T05:55:55.223Z,2.70
2019-03-03T05:58:24.389Z,3.23
2019-03-03T06:00:53.240Z,2.80
2019-03-03T06:03:22.139Z,4.00
2019-03-03T06:05:50.987Z,3.37
2019-03-03T06:08:19.856Z,3.50
2019-03-03T06:10:48.729Z,3.37
2019-03-03T06:13:17.542Z,3.20
2019-03-03T06:15:46.577Z,2.87
2019-03-03T06:18:16.333Z,3.80
2019-03-03T06:20:45.436Z,2.93
2019-03-03T06:23:14.239Z,4.10
2019-03-03T06:25:43.159Z,4.97
2019-03-03T06:28:11.971Z,4.13
2019-03-03T06:30:40.783Z,3.47
2019-03-03T06:33:09.787Z,4.00
2019-03-03T06:35:38.826Z,4.27
2019-03-03T06:38:08.391Z,4.03
2019-03-03T06:40:37.291Z,3.10
2019-03-03T06:43:06.272Z,3.03
2019-03-03T06:45:35.123Z,4.27
2019-03-03T06:48:04.010Z,3.33
2019-03-03T06:50:32.826Z,4.00
2019-03-03T06:53:02.351Z,4.90
2019-03-03T06:55:31.233Z,4.43
2019-03-03T06:58:00.082Z,4.20
2019-03-03T07:00:29.217Z,4.37
2019-03-03T07:02:58.187Z,5.03
2019-03-03T07:05:27.159Z,3.97
2019-03-03T07:07:55.978Z,5.13
2019-03-03T07:10:24.982Z,4.60
2019-03-03T07:12:53.821Z,3.73
2019-03-03T07:15:22.644Z,4.00
2019-03-03T07:17:51.575Z,4.60
2019-03-03T07:20:20.389Z,4.70
2019-03-03T07:22:49.520Z,4.57
2019-03-03T07:25:18.855Z,4.73
2019-03-03T07:27:47.671Z,6.00
2019-03-03T07:30:17.100Z,4.63
2019-03-03T07:32:50.353Z,5.10
2019-03-03T07:35:19.194Z,4.93
2019-03-03T07:37:48.114Z,4.40
2019-03-03T07:40:17.524Z,5.30
2019-03-03T07:42:46.418Z,5.13
2019-03-03T07:45:15.690Z,4.63
2019-03-03T07:47:44.508Z,5.27
2019-03-03T07:50:13.699Z,4.93
2019-03-03T07:52:42.556Z,5.00
2019-03-03T07:55:11.550Z,5.67
2019-03-03T07:57:40.764Z,6.60
2019-03-03T08:00:10.484Z,4.40
2019-03-03T08:02:39.327Z,5.83
2019-03-03T08:05:08.319Z,4.90
2019-03-03T08:07:37.779Z,3.60
2019-03-03T08:10:07.307Z,4.73
2019-03-03T08:12:36.110Z,5.43
2019-03-03T08:15:05.723Z,3.50
2019-03-03T08:17:34.615Z,3.33
2019-03-03T08:20:04.448Z,3.20
2019-03-03T08:22:33.294Z,3.80
2019-03-03T08:25:02.104Z,2.50
2019-03-03T08:27:30.966Z,3.13
2019-03-03T08:29:59.887Z,2.40
2019-03-03T08:32:28.943Z,2.90
2019-03-03T08:34:57.797Z,2.33
2019-03-03T08:37:26.615Z,2.93
2019-03-03T08:39:55.493Z,1.90
2019-03-03T08:42:46.454Z,2.60
2019-03-03T08:45:33.738Z,1.77
2019-03-03T08:48:07.665Z,2.00
2019-03-03T08:50:42.564Z,2.10
2019-03-03T08:53:42.561Z,1.53
2019-03-03T08:56:30.511Z,5.30
2019-03-03T08:59:13.207Z,2.57
2019-03-03T09:02:00.680Z,1.90
2019-03-03T09:04:51.546Z,1.70
2019-03-03T09:07:39.719Z,1.80
2019-03-03T09:10:25.204Z,1.73
2019-03-03T09:13:08.258Z,1.90
2019-03-03T09:15:55.405Z,2.20
2019-03-03T09:18:44.629Z,1.43
2019-03-03T09:21:24.439Z,1.90
2019-03-03T09:24:14.236Z,2.13
2019-03-03T09:26:56.223Z,2.40
2019-03-03T09:29:29.815Z,2.37
2019-03-03T09:32:09.029Z,2.87
2019-03-03T09:34:55.970Z,2.23
2019-03-03T09:37:42.378Z,1.83
2019-03-03T09:40:20.965Z,2.20
2019-03-03T09:43:02.183Z,1.90
2019-03-03T09:46:02.568Z,2.50
2019-03-03T09:48:48.163Z,1.30
2019-03-03T09:51:41.429Z,2.10
2019-03-03T09:54:28.134Z,2.90
2019-03-03T09:57:15.596Z,2.27
2019-03-03T10:00:06.913Z,2.77
2019-03-03T10:02:51.427Z,3.57
2019-03-03T10:05:51.894Z,3.00
2019-03-03T10:08:40.315Z,1.90
2019-03-03T10:11:27.566Z,2.60
2019-03-03T10:14:33.859Z,3.57
2019-03-03T10:17:09.306Z,2.63
2019-03-03T10:19:51.029Z,2.30
2019-03-03T10:22:31.947Z,3.67
2019-03-03T10:25:12.550Z,1.63
2019-03-03T10:28:06.987Z,2.83
2019-03-03T10:30:49.486Z,2.47
2019-03-03T10:33:31.944Z,2.70
2019-03-03T10:36:08.967Z,2.70
2019-03-03T10:39:06.053Z,2.50
2019-03-03T10:42:06.136Z,2.70
2019-03-03T10:44:54.423Z,3.10
2019-03-03T10:47:41.078Z,2.67
2019-03-03T10:50:20.258Z,3.27
2019-03-03T10:53:03.690Z,2.10
2019-03-03T10:55:37.159Z,2.40
2019-03-03T10:58:22.638Z,2.67
2019-03-03T11:01:16.943Z,2.67
2019-03-03T11:04:11.031Z,1.77
2019-03-03T11:06:47.664Z,2.37
2019-03-03T11:09:34.723Z,1.50
2019-03-03T11:12:10.789Z,3.50
2019-03-03T11:14:48.687Z,1.43
2019-03-03T11:17:24.020Z,1.00
2019-03-03T11:20:05.204Z,1.17
2019-03-03T11:22:53.111Z,1.50
2019-03-03T11:25:30.750Z,3.03
2019-03-03T11:28:07.575Z,2.43
2019-03-03T11:30:54.724Z,3.70
2019-03-03T11:33:40.586Z,3.80
2019-03-03T11:36:17.657Z,3.13
2019-03-03T11:39:09.910Z,2.30
2019-03-03T11:42:03.935Z,3.10
2019-03-03T11:44:50.846Z,2.30
2019-03-03T11:47:41.706Z,2.50
2019-03-03T11:50:38.867Z,2.00
2019-03-03T11:53:27.112Z,1.70
2019-03-03T11:56:08.077Z,2.43
2019-03-03T11:59:03.831Z,6.10
2019-03-03T12:01:51.987Z,3.83
2019-03-03T12:04:29.476Z,2.40
2019-03-03T12:07:05.909Z,2.20
2019-03-03T12:09:50.917Z,2.30
2019-03-03T12:12:31.940Z,2.22
2019-03-03T12:15:06.744Z,2.10
2019-03-03T12:17:53.182Z,1.80
2019-03-03T12:20:41.472Z,1.52
2019-03-03T12:23:18.195Z,1.63
2019-03-03T12:26:15.815Z,3.73
2019-03-03T12:28:56.316Z,1.60
2019-03-03T12:31:41.468Z,1.50
2019-03-03T12:34:20.067Z,2.07
2019-03-03T12:37:14.107Z,1.00
2019-03-03T12:40:02.273Z,1.80
2019-03-03T12:43:02.169Z,1.73
2019-03-03T12:45:49.004Z,1.60
2019-03-03T12:48:35.168Z,1.50
2019-03-03T12:51:32.463Z,1.27
2019-03-03T12:54:20.335Z,2.53
2019-03-03T12:57:11.650Z,1.80
2019-03-03T13:00:05.487Z,1.03
2019-03-03T13:02:53.959Z,1.80
2019-03-03T13:05:39.285Z,2.17
2019-03-03T13:08:30.213Z,2.70
2019-03-03T13:11:16.187Z,1.73
2019-03-03T13:13:58.167Z,2.60
2019-03-03T13:16:49.523Z,1.93
2019-03-03T13:19:40.737Z,1.47
2019-03-03T13:22:31.576Z,2.30
2019-03-03T13:25:22.783Z,1.40
2019-03-03T13:28:10.746Z,2.27
2019-03-03T13:31:03.915Z,2.00
2019-03-03T13:33:43.794Z,1.20
2019-03-03T13:36:33.502Z,1.30
2019-03-03T13:39:16.104Z,1.60
2019-03-03T13:42:07.231Z,1.80
2019-03-03T13:44:36.407Z,1.73
2019-03-03T13:47:05.363Z,1.80
2019-03-03T13:49:34.264Z,1.60
2019-03-03T13:52:03.682Z,1.40
2019-03-03T13:54:32.640Z,2.33
2019-03-03T13:57:01.523Z,3.50
2019-03-03T13:59:30.569Z,1.80
2019-03-03T14:01:59.626Z,2.40
2019-03-03T14:04:28.571Z,2.50
2019-03-03T14:06:57.647Z,1.30
2019-03-03T14:09:26.562Z,1.83
2019-03-03T14:11:55.427Z,2.37
2019-03-03T14:14:24.527Z,4.80
2019-03-03T14:16:53.403Z,6.73
2019-03-03T14:19:22.529Z,5.33
2019-03-03T14:21:51.408Z,6.40
2019-03-03T14:24:20.370Z,7.17
2019-03-03T14:26:49.803Z,4.80
2019-03-03T14:29:18.899Z,6.70
2019-03-03T14:31:47.895Z,7.77
2019-03-03T14:34:17.483Z,8.13
2019-03-03T14:36:46.299Z,6.93
2019-03-03T14:39:16.327Z,8.57
2019-03-03T14:41:45.403Z,6.63
2019-03-03T14:44:14.434Z,4.87
2019-03-03T14:46:43.258Z,5.73
2019-03-03T14:49:12.284Z,6.73
2019-03-03T14:51:41.684Z,5.73
2019-03-03T14:54:11.288Z,4.33
2019-03-03T14:56:40.197Z,3.40
2019-03-03T14:59:09.344Z,5.80
2019-03-03T15:01:39.632Z,5.20
2019-03-03T15:04:08.690Z,5.60
2019-03-03T15:06:37.787Z,4.83
2019-03-03T15:09:14.892Z,3.60
2019-03-03T15:11:44.376Z,3.87
2019-03-03T15:14:14.226Z,3.40
2019-03-03T15:16:43.183Z,2.90
2019-03-03T15:19:15.251Z,3.37
2019-03-03T15:21:44.134Z,4.90
2019-03-03T15:24:13.240Z,6.10
2019-03-03T15:26:42.215Z,6.00
2019-03-03T15:29:11.319Z,5.47
2019-03-03T15:31:40.228Z,6.00
2019-03-03T15:34:09.858Z,6.00
2019-03-03T15:36:39.120Z,4.70
2019-03-03T15:39:09.265Z,3.60
2019-03-03T15:41:38.647Z,3.13
2019-03-03T15:44:07.792Z,4.07
2019-03-03T15:46:36.751Z,5.00
2019-03-03T15:49:06.052Z,3.73
2019-03-03T15:51:35.006Z,2.63
2019-03-03T15:54:04.149Z,3.10
2019-03-03T15:56:32.983Z,4.23
2019-03-03T15:59:02.009Z,2.53
2019-03-03T16:01:30.899Z,3.50
2019-03-03T16:04:00.137Z,3.23
2019-03-03T16:06:28.964Z,3.90
2019-03-03T16:08:57.981Z,5.50
2019-03-03T16:11:26.973Z,5.90
2019-03-03T16:13:55.791Z,3.20
2019-03-03T16:16:24.710Z,2.60
2019-03-03T16:18:53.776Z,3.77
2019-03-03T16:21:22.645Z,3.63
2019-03-03T16:23:51.631Z,2.77
2019-03-03T16:26:20.748Z,3.60
2019-03-03T16:28:49.935Z,3.00
2019-03-03T16:31:18.887Z,4.90
2019-03-03T16:33:47.910Z,3.50
2019-03-03T16:36:16.717Z,3.13
2019-03-03T16:38:45.604Z,2.43
2019-03-03T16:41:14.581Z,3.40
2019-03-03T16:43:44.088Z,3.57
2019-03-03T16:46:13.284Z,3.50
2019-03-03T16:48:42.407Z,5.33
2019-03-03T16:51:11.791Z,4.27
2019-03-03T16:53:40.727Z,3.97
2019-03-03T16:56:09.697Z,4.90
2019-03-03T16:58:38.660Z,4.40
2019-03-03T17:01:07.553Z,3.73
2019-03-03T17:03:36.548Z,3.60
2019-03-03T17:06:05.951Z,4.73
2019-03-03T17:08:34.848Z,3.10
2019-03-03T17:11:03.829Z,2.67
2019-03-03T17:13:32.831Z,3.10
2019-03-03T17:16:01.671Z,3.67
2019-03-03T17:18:30.626Z,3.90
2019-03-03T17:20:59.910Z,3.87
2019-03-03T17:23:28.895Z,3.80
2019-03-03T17:25:57.787Z,2.83
2019-03-03T17:28:26.888Z,3.87
2019-03-03T17:30:55.704Z,4.83
2019-03-03T17:33:25.246Z,3.20
2019-03-03T17:35:54.072Z,3.30
2019-03-03T17:38:22.998Z,3.47
2019-03-03T17:40:52.161Z,3.57
2019-03-03T17:43:21.056Z,3.20
2019-03-03T17:45:50.152Z,3.60
2019-03-03T17:48:18.969Z,3.27
2019-03-03T17:50:47.939Z,3.30
2019-03-03T17:53:17.707Z,4.00
2019-03-03T17:55:46.595Z,3.23
2019-03-03T17:58:15.742Z,3.40
2019-03-03T18:00:45.752Z,3.30
2019-03-03T18:03:14.896Z,3.00
2019-03-03T18:05:44.240Z,3.70
2019-03-03T18:08:13.176Z,4.93
2019-03-03T18:10:42.070Z,3.53
2019-03-03T18:13:11.329Z,3.20
2019-03-03T18:15:40.307Z,7.57
2019-03-03T18:18:09.156Z,4.60
2019-03-03T18:20:38.633Z,3.23
2019-03-03T18:23:07.630Z,3.97
2019-03-03T18:25:36.843Z,3.53
2019-03-03T18:28:05.899Z,4.17
2019-03-03T18:30:35.339Z,4.37
2019-03-03T18:33:04.503Z,4.53
2019-03-03T18:35:33.389Z,6.23
2019-03-03T18:38:02.788Z,4.03
2019-03-03T18:40:31.781Z,3.30
2019-03-03T18:43:00.621Z,3.37
2019-03-03T18:45:29.422Z,3.30
2019-03-03T18:47:58.455Z,3.70
2019-03-03T18:50:27.510Z,3.45
2019-03-03T18:52:56.409Z,6.20
2019-03-03T18:55:25.400Z,4.33
2019-03-03T18:57:54.735Z,4.97
2019-03-03T19:00:24.443Z,4.03
2019-03-03T19:02:53.801Z,4.10
2019-03-03T19:05:23.151Z,4.77
2019-03-03T19:07:52.318Z,4.37
2019-03-03T19:10:22.307Z,3.87
2019-03-03T19:12:51.285Z,3.80
2019-03-03T19:15:20.285Z,3.87
2019-03-03T19:17:49.661Z,4.30
2019-03-03T19:20:19.182Z,4.40
2019-03-03T19:22:48.558Z,3.80
2019-03-03T19:25:18.071Z,4.00
2019-03-03T19:27:47.039Z,4.07
2019-03-03T19:30:18.321Z,3.43
2019-03-03T19:32:49.305Z,4.60
2019-03-03T19:35:18.288Z,3.37
2019-03-03T19:37:47.544Z,4.27
2019-03-03T19:40:17.010Z,3.73
2019-03-03T19:42:45.990Z,3.37
2019-03-03T19:45:18.502Z,4.27
2019-03-03T19:47:47.805Z,3.17
2019-03-03T19:50:17.210Z,4.90
2019-03-03T19:52:46.541Z,3.47
2019-03-03T19:55:16.042Z,3.07
2019-03-03T19:57:45.317Z,3.93
2019-03-03T20:00:18.760Z,3.27
2019-03-03T20:02:47.731Z,5.50
2019-03-03T20:05:16.803Z,4.27
2019-03-03T20:07:46.047Z,5.83
2019-03-03T20:10:15.142Z,3.43
2019-03-03T20:12:44.391Z,3.20
2019-03-03T20:15:13.504Z,4.00
2019-03-03T20:17:42.384Z,2.60
2019-03-03T20:20:13.435Z,4.00
2019-03-03T20:22:42.437Z,2.77
2019-03-03T20:25:11.890Z,2.77
2019-03-03T20:27:41.042Z,2.87
2019-03-03T20:30:12.699Z,3.10
2019-03-03T20:32:41.776Z,2.63
2019-03-03T20:35:11.167Z,2.87
2019-03-03T20:37:40.556Z,2.37
2019-03-03T20:40:11.960Z,2.43
2019-03-03T20:42:41.173Z,3.20
2019-03-03T20:45:15.195Z,2.00
2019-03-03T20:47:44.179Z,1.67
2019-03-03T20:50:15.639Z,1.60
2019-03-03T20:52:44.544Z,2.10
2019-03-03T20:55:15.004Z,1.37
2019-03-03T20:57:43.889Z,2.40
2019-03-03T21:00:15.555Z,2.37
2019-03-03T21:02:44.395Z,1.80
2019-03-03T21:05:13.382Z,1.70
2019-03-03T21:07:50.840Z,2.00
2019-03-03T21:10:15.435Z,2.53
2019-03-03T21:12:44.447Z,2.53
2019-03-03T21:15:13.592Z,1.80
2019-03-03T21:17:42.480Z,1.77
2019-03-03T21:20:13.062Z,3.83
2019-03-03T21:22:42.439Z,1.90
2019-03-03T21:25:12.226Z,1.63
2019-03-03T21:27:41.329Z,2.80
2019-03-03T21:30:16.355Z,1.20
2019-03-03T21:32:45.179Z,1.90
2019-03-03T21:35:14.455Z,2.17
2019-03-03T21:37:43.819Z,1.67
2019-03-03T21:40:14.495Z,1.83
2019-03-03T21:42:43.503Z,2.00
2019-03-03T21:45:14.033Z,2.03
2019-03-03T21:47:43.030Z,1.77
2019-03-03T21:50:14.298Z,2.03
2019-03-03T21:52:43.370Z,2.07
2019-03-03T21:55:12.579Z,2.40
2019-03-03T21:57:41.589Z,2.07
2019-03-03T22:00:20.427Z,2.10
2019-03-03T22:02:49.410Z,2.07
2019-03-03T22:05:18.378Z,2.07
2019-03-03T22:07:47.240Z,1.83
2019-03-03T22:10:16.143Z,2.27
2019-03-03T22:12:45.105Z,1.93
2019-03-03T22:15:14.600Z,2.17
2019-03-03T22:17:43.823Z,2.97
2019-03-03T22:20:13.271Z,2.63
2019-03-03T22:22:42.074Z,2.73
2019-03-03T22:25:11.102Z,2.10
2019-03-03T22:27:40.513Z,2.00
2019-03-03T22:30:09.839Z,2.10
2019-03-03T22:32:39.080Z,2.60
2019-03-03T22:35:08.123Z,3.07
2019-03-03T22:37:37.034Z,2.87
2019-03-03T22:40:06.534Z,1.90
2019-03-03T22:42:35.724Z,2.10
2019-03-03T22:45:05.131Z,2.43
2019-03-03T22:47:34.001Z,3.13
2019-03-03T22:50:02.815Z,2.03
2019-03-03T22:52:31.723Z,2.73
2019-03-03T22:55:00.681Z,2.50
2019-03-03T22:57:29.539Z,2.70
2019-03-03T22:59:58.453Z,1.97
2019-03-03T23:02:27.661Z,1.77
2019-03-03T23:05:14.306Z,2.27
2019-03-03T23:08:18.500Z,2.90
2019-03-03T23:10:56.665Z,1.97
2019-03-03T23:14:03.528Z,2.73
2019-03-03T23:17:10.829Z,2.63
2019-03-03T23:20:26.485Z,2.53
2019-03-03T23:23:44.720Z,1.93
2019-03-03T23:26:16.840Z,2.80
2019-03-03T23:28:44.291Z,2.27
2019-03-03T23:31:13.191Z,3.20
2019-03-03T23:33:42.048Z,2.77
2019-03-03T23:36:10.920Z,2.33
2019-03-03T23:38:39.902Z,3.07
2019-03-03T23:41:08.779Z,2.47
2019-03-03T23:43:37.862Z,2.53
2019-03-03T23:46:07.045Z,1.50
2019-03-03T23:48:35.849Z,2.80
2019-03-03T23:51:04.759Z,2.33
2019-03-03T23:53:33.666Z,2.27
2019-03-03T23:56:02.656Z,2.03
2019-03-03T23:58:31.511Z,2.20
